Time;durP1;ratioP1;P1;durP2;ratioP2;P2;SDS_P1;SDS_P2;PMS_P1;PMS_P2;Temp;Humidity;BMP_temperature;BMP_pressure;BME280_temperature;BME280_humidity;BME280_pressure;Samples;Min_cycle;Max_cycle;Signal;HPM_P1;HPM_P2
2022/04/23 00:00:56;;;;;;;21.50;17.48;;;12.50;66.30;;;;;;5090329;28;20433;-88
2022/04/23 00:03:22;;;;;;;24.53;17.13;;;12.40;66.40;;;;;;5124291;28;20263;-88
2022/04/23 00:05:47;;;;;;;20.30;16.50;;;12.40;66.70;;;;;;5108242;28;20428;-88
2022/04/23 00:08:14;;;;;;;23.07;17.33;;;12.60;66.50;;;;;;5092970;28;20199;-88
2022/04/23 00:10:40;;;;;;;25.67;18.30;;;12.50;66.30;;;;;;5094945;28;20171;-87
2022/04/23 00:13:06;;;;;;;19.20;16.20;;;12.50;66.40;;;;;;5101531;28;20180;-88
2022/04/23 00:15:37;;;;;;;21.30;17.98;;;12.50;66.50;;;;;;5082520;28;20429;-87
2022/04/23 00:18:10;;;;;;;22.38;18.10;;;12.50;66.40;;;;;;5098095;28;20202;-87
2022/04/23 00:20:37;;;;;;;25.25;17.48;;;12.50;66.50;;;;;;5101913;28;20597;-88
2022/04/23 00:23:05;;;;;;;20.65;17.77;;;12.40;66.80;;;;;;5101995;28;20259;-87
2022/04/23 00:25:40;;;;;;;27.73;18.65;;;12.50;66.80;;;;;;5101845;28;20175;-88
2022/04/23 00:28:06;;;;;;;23.30;17.77;;;12.60;66.60;;;;;;5102692;28;20856;-88
2022/04/23 00:30:33;;;;;;;21.73;18.55;;;12.70;66.50;;;;;;5103899;28;20198;-88
2022/04/23 00:33:03;;;;;;;22.40;16.92;;;12.60;66.60;;;;;;5087015;28;20196;-88
2022/04/23 00:35:29;;;;;;;22.08;19.10;;;12.60;66.60;;;;;;5109165;28;20175;-88
2022/04/23 00:37:55;;;;;;;20.77;18.35;;;12.60;66.70;;;;;;5093765;28;20211;-88
2022/04/23 00:40:24;;;;;;;22.77;19.00;;;12.60;66.80;;;;;;5077339;28;20263;-87
2022/04/23 00:42:55;;;;;;;25.35;18.23;;;12.60;66.90;;;;;;5087979;28;20184;-88
2022/04/23 00:45:30;;;;;;;24.73;18.45;;;12.40;67.30;;;;;;5100355;28;20169;-87
2022/04/23 00:47:56;;;;;;;25.92;18.95;;;12.50;67.40;;;;;;5090495;28;20186;-88
2022/04/23 00:50:22;;;;;;;28.17;19.50;;;12.50;67.50;;;;;;5081143;28;20542;-87
2022/04/23 00:53:00;;;;;;;22.77;17.77;;;12.50;67.60;;;;;;5090229;28;20421;-88
2022/04/23 00:55:28;;;;;;;28.05;19.40;;;12.50;67.60;;;;;;5081256;28;20167;-88
2022/04/23 00:57:54;;;;;;;25.52;19.67;;;12.60;67.60;;;;;;5080848;28;20195;-88
2022/04/23 01:00:21;;;;;;;28.77;19.75;;;12.60;67.40;;;;;;5082328;28;20617;-88
2022/04/23 01:02:47;;;;;;;23.85;19.88;;;12.50;67.50;;;;;;5099047;28;20271;-88
2022/04/23 01:05:14;;;;;;;27.07;20.63;;;12.40;67.90;;;;;;5084821;28;20191;-88
2022/04/23 01:07:44;;;;;;;23.08;18.98;;;12.40;68.10;;;;;;5120205;28;20437;-88
2022/04/23 01:10:11;;;;;;;23.65;19.17;;;12.30;68.40;;;;;;5119761;28;20210;-87
2022/04/23 01:12:38;;;;;;;26.67;19.95;;;12.40;68.30;;;;;;5118786;28;20171;-87
2022/04/23 01:15:09;;;;;;;25.50;19.48;;;12.50;68.20;;;;;;5099969;28;20236;-88
2022/04/23 01:17:36;;;;;;;26.95;21.83;;;12.50;68.00;;;;;;5100031;28;20693;-87
2022/04/23 01:20:10;;;;;;;22.55;18.23;;;12.50;68.10;;;;;;5118947;28;20183;-87
2022/04/23 01:22:37;;;;;;;24.50;19.30;;;12.50;68.30;;;;;;5087220;28;20176;-88
2022/04/23 01:25:06;;;;;;;23.83;20.58;;;12.50;68.20;;;;;;5104849;28;20212;-88
2022/04/23 01:27:32;;;;;;;23.13;20.27;;;12.60;68.10;;;;;;5081110;28;20307;-87
2022/04/23 01:29:58;;;;;;;31.50;20.80;;;12.50;68.30;;;;;;5080288;28;20255;-89
2022/04/23 01:32:24;;;;;;;21.35;19.05;;;12.50;68.40;;;;;;5080961;28;20183;-88
2022/04/23 01:34:50;;;;;;;24.02;19.90;;;12.50;68.40;;;;;;5081194;28;20182;-90
2022/04/23 01:37:19;;;;;;;23.00;20.50;;;12.50;68.50;;;;;;5099749;28;20219;-89
2022/04/23 01:39:47;;;;;;;29.95;21.70;;;12.60;68.40;;;;;;5081731;28;20452;-88
2022/04/23 01:42:13;;;;;;;24.13;21.40;;;12.50;68.40;;;;;;5081494;28;20544;-88
2022/04/23 01:44:39;;;;;;;26.70;21.17;;;12.50;68.50;;;;;;5081032;28;20554;-88
2022/04/23 01:47:05;;;;;;;32.70;21.20;;;12.50;68.80;;;;;;5081490;28;20691;-87
2022/04/23 01:49:31;;;;;;;23.98;20.10;;;12.40;68.70;;;;;;5101041;28;20175;-87
2022/04/23 01:51:57;;;;;;;24.50;20.97;;;12.40;68.80;;;;;;5087887;28;20182;-88
2022/04/23 01:54:23;;;;;;;26.13;21.40;;;12.50;68.70;;;;;;5105082;28;20413;-89
2022/04/23 01:56:49;;;;;;;30.77;20.87;;;12.40;69.00;;;;;;5104384;28;20204;-89
2022/04/23 01:59:24;;;;;;;25.60;22.03;;;12.50;69.10;;;;;;5085608;28;20233;-87
2022/04/23 02:01:51;;;;;;;28.35;22.27;;;12.50;69.00;;;;;;5091015;28;20428;-87
2022/04/23 02:04:16;;;;;;;29.33;23.20;;;12.40;69.00;;;;;;5102662;28;20207;-87
2022/04/23 02:06:43;;;;;;;28.37;22.77;;;12.50;69.00;;;;;;5124401;28;20191;-88
2022/04/23 02:09:09;;;;;;;29.58;21.30;;;12.40;69.20;;;;;;5107815;28;20561;-88
2022/04/23 02:11:35;;;;;;;26.43;22.70;;;12.40;69.50;;;;;;5109904;28;20604;-88
2022/04/23 02:14:02;;;;;;;25.00;22.30;;;12.40;69.40;;;;;;5105988;28;20786;-88
2022/04/23 02:16:28;;;;;;;24.35;20.02;;;12.40;70.00;;;;;;5088962;28;20179;-88
2022/04/23 02:18:57;;;;;;;25.08;21.90;;;12.40;69.30;;;;;;5080491;28;20709;-87
2022/04/23 02:21:26;;;;;;;28.30;23.38;;;12.40;69.40;;;;;;5097235;28;20178;-87
2022/04/23 02:23:53;;;;;;;26.42;22.65;;;12.40;69.70;;;;;;5080527;28;20717;-89
2022/04/23 02:26:20;;;;;;;24.88;20.83;;;12.40;69.50;;;;;;5082336;28;20263;-88
2022/04/23 02:28:47;;;;;;;25.48;22.42;;;12.40;69.50;;;;;;5080889;28;20198;-90
2022/04/23 02:31:13;;;;;;;28.75;22.70;;;12.30;69.90;;;;;;5082199;28;20183;-89
2022/04/23 02:33:39;;;;;;;26.85;22.88;;;12.30;70.00;;;;;;5083732;28;20183;-88
2022/04/23 02:36:06;;;;;;;28.95;23.63;;;12.40;70.00;;;;;;5085738;28;20187;-88
2022/04/23 02:38:39;;;;;;;28.30;22.70;;;12.40;69.80;;;;;;5089093;28;20819;-88
2022/04/23 02:41:06;;;;;;;30.63;23.17;;;12.40;69.70;;;;;;5088620;28;20180;-88
2022/04/23 02:43:32;;;;;;;27.05;22.92;;;12.40;69.70;;;;;;5081369;28;20204;-88
2022/04/23 02:46:00;;;;;;;32.83;24.10;;;12.40;69.80;;;;;;5104115;28;20540;-88
2022/04/23 02:48:26;;;;;;;31.70;23.80;;;12.50;69.70;;;;;;5099071;28;20429;-88
2022/04/23 02:50:52;;;;;;;30.05;22.60;;;12.50;69.50;;;;;;5117619;28;20183;-88
2022/04/23 02:53:17;;;;;;;34.07;24.70;;;12.40;69.50;;;;;;5102975;28;20516;-88
2022/04/23 02:55:43;;;;;;;25.07;21.33;;;12.50;69.50;;;;;;5097121;28;20172;-86
2022/04/23 02:58:10;;;;;;;28.83;23.67;;;12.30;69.70;;;;;;5101607;28;20616;-85
2022/04/23 03:00:44;;;;;;;31.65;23.50;;;12.30;70.00;;;;;;5086001;28;20176;-87
2022/04/23 03:03:11;;;;;;;32.67;25.42;;;12.30;70.00;;;;;;5080410;28;20208;-87
2022/04/23 03:05:42;;;;;;;30.77;24.17;;;12.30;70.10;;;;;;5097390;28;20164;-87
2022/04/23 03:08:09;;;;;;;31.00;23.90;;;12.20;70.20;;;;;;5079519;28;20202;-88
2022/04/23 03:10:35;;;;;;;28.95;24.95;;;12.20;70.30;;;;;;5099209;28;20547;-87
2022/04/23 03:13:01;;;;;;;31.80;23.73;;;12.20;70.30;;;;;;5102054;28;20176;-88
2022/04/23 03:15:27;;;;;;;29.10;23.17;;;12.30;70.30;;;;;;5084671;28;20429;-86
2022/04/23 03:18:10;;;;;;;30.70;24.55;;;12.20;70.90;;;;;;5097212;28;20206;-86
2022/04/23 03:20:37;;;;;;;28.05;24.33;;;12.10;70.40;;;;;;5097975;28;20179;-86
2022/04/23 03:23:04;;;;;;;28.23;23.30;;;12.10;70.40;;;;;;5097965;28;20236;-86
2022/04/23 03:25:32;;;;;;;30.48;22.55;;;12.10;70.40;;;;;;5098012;28;20217;-87
2022/04/23 03:27:59;;;;;;;30.35;24.05;;;12.10;70.60;;;;;;5097608;28;20199;-86
2022/04/23 03:30:25;;;;;;;31.48;23.85;;;12.10;70.70;;;;;;5098619;28;20175;-85
2022/04/23 03:32:51;;;;;;;29.25;24.05;;;12.10;70.50;;;;;;5085026;28;20172;-85
2022/04/23 03:35:17;;;;;;;28.17;23.00;;;12.10;70.40;;;;;;5101467;28;20172;-87
2022/04/23 03:37:43;;;;;;;28.60;23.27;;;12.10;70.70;;;;;;5086375;28;20457;-87
2022/04/23 03:40:10;;;;;;;30.00;22.87;;;12.10;70.70;;;;;;5084717;28;20179;-86
2022/04/23 03:42:36;;;;;;;27.80;23.25;;;12.10;70.80;;;;;;5082413;28;20174;-86
2022/04/23 03:45:06;;;;;;;29.75;23.70;;;12.00;70.90;;;;;;5077808;28;20207;-86
2022/04/23 03:47:32;;;;;;;29.08;23.08;;;12.00;71.40;;;;;;5096454;28;20191;-86
2022/04/23 03:50:06;;;;;;;28.00;23.27;;;12.00;70.80;;;;;;5097021;28;20201;-86
2022/04/23 03:52:32;;;;;;;28.50;23.45;;;12.00;71.00;;;;;;5088615;28;20659;-86
2022/04/23 03:54:58;;;;;;;33.28;23.73;;;11.90;71.10;;;;;;5076797;28;20188;-86
2022/04/23 03:57:24;;;;;;;32.35;25.90;;;11.90;71.20;;;;;;5076638;28;20196;-86
2022/04/23 03:59:50;;;;;;;29.67;23.73;;;11.80;71.50;;;;;;5076812;28;20267;-86
2022/04/23 04:02:15;;;;;;;31.83;23.60;;;11.90;71.50;;;;;;5076687;28;20176;-87
2022/04/23 04:04:48;;;;;;;33.27;23.67;;;11.90;71.40;;;;;;5076515;28;20207;-88
2022/04/23 04:07:18;;;;;;;35.17;26.50;;;11.80;71.40;;;;;;5094722;28;20191;-86
2022/04/23 04:09:44;;;;;;;30.20;25.45;;;11.80;71.50;;;;;;5097245;28;20176;-87
2022/04/23 04:12:10;;;;;;;31.03;25.33;;;11.70;71.80;;;;;;5098371;28;20171;-88
2022/04/23 04:14:37;;;;;;;29.25;23.73;;;11.70;72.20;;;;;;5115322;28;20827;-87
2022/04/23 04:17:07;;;;;;;31.90;24.95;;;11.70;72.20;;;;;;5097264;28;20203;-86
2022/04/23 04:19:34;;;;;;;29.17;25.13;;;11.80;72.00;;;;;;5096628;28;20183;-86
2022/04/23 04:22:03;;;;;;;28.10;23.95;;;11.70;72.00;;;;;;5099664;28;20184;-88
2022/04/23 04:24:30;;;;;;;30.90;24.38;;;11.70;72.00;;;;;;5097510;28;20209;-87
2022/04/23 04:26:58;;;;;;;28.92;23.77;;;11.80;72.10;;;;;;5100464;28;20218;-87
2022/04/23 04:29:25;;;;;;;30.00;25.35;;;11.60;72.30;;;;;;5100882;28;20175;-86
2022/04/23 04:31:51;;;;;;;31.15;25.52;;;11.70;72.30;;;;;;5101624;28;20179;-87
2022/04/23 04:34:23;;;;;;;32.60;25.08;;;11.80;72.20;;;;;;5107667;28;20638;-86
2022/04/23 04:36:50;;;;;;;31.75;24.35;;;11.70;72.20;;;;;;5109913;28;20326;-86
2022/04/23 04:39:17;;;;;;;31.60;25.05;;;11.70;72.10;;;;;;5083767;28;20172;-87
2022/04/23 04:41:44;;;;;;;31.35;25.35;;;11.80;72.00;;;;;;5090233;28;20666;-88
2022/04/23 04:44:10;;;;;;;26.70;23.80;;;11.80;71.90;;;;;;5111812;28;20191;-87
2022/04/23 04:46:36;;;;;;;27.50;23.17;;;11.80;71.80;;;;;;5093053;28;20640;-87
2022/04/23 04:49:04;;;;;;;32.88;25.25;;;11.70;71.80;;;;;;5091236;28;20443;-86
2022/04/23 04:51:30;;;;;;;34.03;24.60;;;11.70;71.90;;;;;;5086411;28;20239;-88
2022/04/23 04:53:57;;;;;;;29.35;24.25;;;11.80;71.90;;;;;;5088386;28;20268;-87
2022/04/23 04:56:23;;;;;;;27.08;22.27;;;11.80;71.80;;;;;;5065904;28;20278;-86
2022/04/23 04:58:49;;;;;;;28.20;23.63;;;11.70;71.90;;;;;;5084087;28;20172;-88
2022/04/23 05:01:19;;;;;;;31.58;24.10;;;11.80;71.80;;;;;;5085478;28;20210;-87
2022/04/23 05:03:45;;;;;;;31.75;22.70;;;11.90;71.70;;;;;;5073797;28;20199;-87
2022/04/23 05:06:11;;;;;;;29.17;24.20;;;11.80;71.50;;;;;;5074457;28;20181;-87
2022/04/23 05:08:38;;;;;;;32.05;24.60;;;11.90;71.50;;;;;;5076273;28;20439;-86
2022/04/23 05:11:04;;;;;;;31.38;24.55;;;11.90;71.50;;;;;;5099410;28;20180;-89
2022/04/23 05:13:30;;;;;;;30.10;25.45;;;11.90;71.50;;;;;;5062811;28;20172;-87
2022/04/23 05:15:56;;;;;;;30.65;25.55;;;11.90;71.30;;;;;;5059846;28;20274;-87
2022/04/23 05:18:22;;;;;;;31.35;25.27;;;11.90;71.40;;;;;;5059134;28;20196;-87
2022/04/23 05:20:48;;;;;;;30.20;23.48;;;12.00;71.30;;;;;;5059969;28;20648;-86
2022/04/23 05:23:14;;;;;;;25.98;22.17;;;12.00;71.30;;;;;;5058794;28;20211;-87
2022/04/23 05:26:00;;;;;;;31.33;25.80;;;12.20;70.90;;;;;;5092792;28;20178;-87
2022/04/23 05:28:26;;;;;;;30.20;24.42;;;12.30;70.70;;;;;;5099376;28;20230;-86
2022/04/23 05:30:51;;;;;;;29.00;23.43;;;12.80;69.40;;;;;;5117745;28;20256;-86
2022/04/23 05:33:17;;;;;;;32.20;24.57;;;13.00;68.10;;;;;;5100024;28;20213;-86
2022/04/23 05:35:43;;;;;;;28.80;23.47;;;13.20;67.30;;;;;;5098860;28;20183;-86
2022/04/23 05:38:09;;;;;;;26.60;23.67;;;13.50;66.40;;;;;;5116488;28;20512;-87
2022/04/23 05:40:35;;;;;;;27.90;23.80;;;13.80;65.50;;;;;;5084959;28;20932;-87
2022/04/23 05:43:00;;;;;;;28.43;24.43;;;13.80;65.00;;;;;;5079264;28;20191;-87
2022/04/23 05:45:28;;;;;;;29.67;23.83;;;14.00;64.40;;;;;;5079050;28;20526;-86
2022/04/23 05:47:54;;;;;;;28.10;23.33;;;14.00;64.00;;;;;;5082512;28;20198;-87
2022/04/23 05:50:20;;;;;;;27.55;24.70;;;14.30;63.50;;;;;;5099655;28;20182;-87
2022/04/23 05:52:46;;;;;;;33.65;24.85;;;14.50;62.50;;;;;;5093700;28;20186;-88
2022/04/23 05:55:12;;;;;;;27.97;24.60;;;14.60;62.10;;;;;;5085827;28;20231;-88
2022/04/23 05:57:38;;;;;;;25.50;22.93;;;14.60;61.80;;;;;;5101380;28;20437;-86
2022/04/23 06:00:09;;;;;;;24.77;22.23;;;15.00;61.30;;;;;;5101950;28;20418;-87
2022/04/23 06:02:35;;;;;;;28.02;23.45;;;15.30;60.10;;;;;;5082957;28;20176;-88
2022/04/23 06:05:01;;;;;;;26.30;23.45;;;15.40;59.40;;;;;;5066683;28;20695;-86
2022/04/23 06:07:27;;;;;;;30.33;24.73;;;15.30;59.70;;;;;;5083607;28;20263;-87
2022/04/23 06:09:53;;;;;;;29.30;24.20;;;15.70;58.90;;;;;;5080161;28;20249;-87
2022/04/23 06:12:20;;;;;;;28.67;24.13;;;15.90;58.00;;;;;;5081995;28;20172;-87
2022/04/23 06:14:46;;;;;;;25.42;22.73;;;16.00;57.50;;;;;;5084300;28;20263;-87
2022/04/23 06:17:13;;;;;;;25.37;22.67;;;16.40;56.70;;;;;;5082208;28;20325;-87
2022/04/23 06:19:39;;;;;;;26.23;23.08;;;16.60;55.70;;;;;;5065592;28;20426;-87
2022/04/23 06:22:06;;;;;;;25.48;22.80;;;16.70;55.20;;;;;;5102068;28;20179;-86
2022/04/23 06:24:32;;;;;;;26.35;23.55;;;16.80;54.70;;;;;;5099003;28;20660;-87
2022/04/23 06:26:58;;;;;;;25.50;22.67;;;16.90;54.40;;;;;;5097224;28;20799;-86
2022/04/23 06:29:24;;;;;;;28.60;25.57;;;17.20;53.50;;;;;;5073853;28;20172;-86
2022/04/23 06:31:49;;;;;;;28.57;22.77;;;17.30;52.70;;;;;;5099868;28;20167;-88
2022/04/23 06:34:15;;;;;;;26.97;23.77;;;17.10;53.00;;;;;;5083301;28;20180;-86
2022/04/23 06:36:42;;;;;;;29.63;25.50;;;16.80;53.20;;;;;;5084771;28;20453;-87
2022/04/23 06:39:08;;;;;;;25.38;22.67;;;16.90;53.60;;;;;;5083586;28;20436;-86
2022/04/23 06:41:34;;;;;;;27.40;24.40;;;17.20;53.30;;;;;;5080770;28;20184;-87
2022/04/23 06:43:59;;;;;;;29.50;24.73;;;17.10;53.10;;;;;;5083296;28;20214;-89
2022/04/23 06:46:26;;;;;;;25.77;23.00;;;17.40;52.40;;;;;;5057628;28;20514;-89
2022/04/23 06:48:52;;;;;;;24.10;21.50;;;17.90;51.40;;;;;;5080277;28;20258;-90
2022/04/23 06:51:18;;;;;;;25.77;23.13;;;17.60;51.40;;;;;;5078126;28;20203;-88
2022/04/23 06:53:43;;;;;;;24.33;21.67;;;17.50;52.00;;;;;;5096833;28;20183;-88
2022/04/23 06:56:09;;;;;;;26.03;22.40;;;17.60;51.30;;;;;;5096523;28;20178;-88
2022/04/23 06:58:35;;;;;;;25.17;22.48;;;17.30;51.20;;;;;;5084663;28;20203;-89
2022/04/23 07:01:20;;;;;;;27.15;24.20;;;17.00;52.40;;;;;;5097399;28;20175;-89
2022/04/23 07:03:52;;;;;;;28.60;24.25;;;16.40;54.10;;;;;;5076738;28;20234;-88
2022/04/23 07:06:18;;;;;;;31.08;25.08;;;15.60;56.10;;;;;;5094376;28;20168;-88
2022/04/23 07:08:45;;;;;;;34.13;25.57;;;15.00;58.20;;;;;;5073979;28;20168;-90
2022/04/23 07:11:11;;;;;;;27.77;24.15;;;14.60;60.00;;;;;;5063308;28;20847;-88
2022/04/23 07:13:38;;;;;;;33.10;25.02;;;14.70;60.40;;;;;;5082095;28;20183;-88
2022/04/23 07:16:04;;;;;;;29.00;23.73;;;14.70;60.50;;;;;;5082821;28;20183;-86
2022/04/23 07:18:31;;;;;;;32.13;25.45;;;14.70;60.70;;;;;;5119969;28;20229;-86
2022/04/23 07:20:57;;;;;;;33.22;24.45;;;14.60;61.00;;;;;;5104253;28;20183;-87
2022/04/23 07:26:08;;;;;;;27.05;23.83;;;14.30;61.90;;;;;;5101046;28;20728;-87
2022/04/23 07:28:35;;;;;;;26.98;23.20;;;14.30;62.20;;;;;;5103530;28;20845;-87
2022/04/23 07:31:01;;;;;;;29.23;24.85;;;14.20;62.30;;;;;;5088915;28;20176;-87
2022/04/23 07:38:57;;;;;;;30.20;23.17;;;14.40;62.30;;;;;;5092882;28;20191;-88
2022/04/23 07:41:23;;;;;;;27.37;22.80;;;14.30;62.50;;;;;;5090517;28;20267;-88
2022/04/23 07:43:49;;;;;;;33.37;22.93;;;14.40;62.10;;;;;;5101425;28;20208;-90
2022/04/23 07:46:14;;;;;;;89.00;29.67;;;14.40;62.10;;;;;;5083928;28;20477;-89
2022/04/23 07:48:40;;;;;;;33.63;23.63;;;14.40;62.00;;;;;;5081294;28;20196;-89
2022/04/23 07:51:06;;;;;;;30.90;25.70;;;14.30;62.30;;;;;;5084130;28;20206;-89
2022/04/23 07:53:32;;;;;;;28.57;25.27;;;14.20;62.50;;;;;;5087383;28;20429;-88
2022/04/23 07:55:58;;;;;;;30.97;23.20;;;14.20;62.70;;;;;;5085747;28;20422;-88
2022/04/23 07:58:23;;;;;;;31.27;24.60;;;14.30;62.70;;;;;;5071158;28;20238;-89
2022/04/23 08:00:49;;;;;;;26.97;22.27;;;14.40;62.60;;;;;;5086760;28;20910;-90
2022/04/23 08:03:15;;;;;;;27.73;22.30;;;14.50;62.70;;;;;;5086508;28;20279;-88
2022/04/23 08:05:44;;;;;;;31.00;24.45;;;14.50;62.30;;;;;;5086500;28;20688;-89
2022/04/23 08:08:09;;;;;;;31.77;25.38;;;14.50;62.20;;;;;;5086925;28;20199;-89
2022/04/23 08:10:35;;;;;;;30.47;24.93;;;14.60;62.10;;;;;;5082666;28;20172;-89
2022/04/23 08:13:01;;;;;;;29.80;23.23;;;14.70;62.10;;;;;;5081870;28;20207;-88
2022/04/23 08:15:27;;;;;;;28.57;23.87;;;14.90;61.80;;;;;;5085382;28;20176;-89
2022/04/23 08:17:54;;;;;;;32.10;24.93;;;15.00;61.00;;;;;;5088983;28;20433;-89
2022/04/23 08:20:20;;;;;;;27.23;23.33;;;14.80;61.40;;;;;;5089191;28;20424;-88
2022/04/23 08:22:46;;;;;;;33.63;24.87;;;15.00;61.30;;;;;;5089187;28;20175;-88
2022/04/23 08:25:12;;;;;;;33.88;24.70;;;15.10;61.20;;;;;;5088386;28;20453;-88
2022/04/23 08:30:34;;;;;;;28.43;23.10;;;15.20;60.60;;;;;;5082777;28;20313;-89
2022/04/23 08:30:46;;;;;;;29.80;24.83;;;15.20;60.30;;;;;;5094701;28;20172;-88
2022/04/23 08:33:11;;;;;;;32.05;24.48;;;15.20;60.20;;;;;;5081640;28;20179;-88
2022/04/23 08:35:38;;;;;;;34.00;24.37;;;15.20;60.10;;;;;;5081190;28;20270;-88
2022/04/23 08:38:05;;;;;;;28.42;24.42;;;15.20;60.20;;;;;;5099330;28;20458;-89
2022/04/23 08:40:36;;;;;;;30.45;24.15;;;15.20;60.30;;;;;;5098847;28;20263;-88
2022/04/23 08:43:02;;;;;;;25.90;21.70;;;15.30;60.20;;;;;;5081132;28;20179;-89
2022/04/23 08:45:29;;;;;;;30.60;24.43;;;15.40;60.00;;;;;;5080769;28;20171;-89
2022/04/23 08:47:57;;;;;;;29.95;23.75;;;15.40;60.10;;;;;;5083899;28;20312;-87
2022/04/23 08:50:26;;;;;;;31.60;25.10;;;15.30;60.10;;;;;;5100594;28;20202;-87
2022/04/23 08:52:56;;;;;;;46.33;25.70;;;15.30;60.60;;;;;;5072778;28;20176;-89
2022/04/23 08:55:22;;;;;;;32.88;24.85;;;15.30;60.20;;;;;;5080620;28;20182;-86
2022/04/23 08:57:48;;;;;;;31.90;24.40;;;15.40;60.20;;;;;;5080697;28;20195;-87
2022/04/23 09:00:15;;;;;;;28.83;25.10;;;15.60;60.00;;;;;;5079683;28;20289;-90
2022/04/23 09:02:43;;;;;;;31.67;24.70;;;15.80;59.80;;;;;;5079028;28;20172;-88
2022/04/23 09:05:13;;;;;;;28.02;23.90;;;15.80;59.40;;;;;;5078661;28;20210;-88
2022/04/23 09:07:39;;;;;;;26.13;23.30;;;15.90;58.90;;;;;;5078830;28;20707;-88
2022/04/23 09:10:06;;;;;;;34.50;24.77;;;15.80;58.60;;;;;;5079832;28;20647;-88
2022/04/23 09:12:32;;;;;;;28.60;24.98;;;15.90;58.90;;;;;;5080082;28;20188;-88
2022/04/23 09:23:39;;;;;;;32.08;24.05;;;15.90;59.10;;;;;;5097364;28;20348;-88
2022/04/23 09:23:41;;;;;;;30.08;23.98;;;16.10;58.30;;;;;;5111562;28;20160;-89
2022/04/23 09:26:22;;;;;;;26.58;21.83;;;15.90;58.30;;;;;;5094499;28;20201;-87
2022/04/23 09:28:50;;;;;;;28.25;23.40;;;16.10;58.50;;;;;;5094621;28;20172;-87
2022/04/23 09:31:16;;;;;;;25.50;21.23;;;16.40;58.20;;;;;;5087662;28;20263;-87
2022/04/23 09:33:48;;;;;;;26.42;23.20;;;16.50;57.50;;;;;;5085159;28;20180;-87
2022/04/23 09:36:14;;;;;;;25.02;22.33;;;16.60;56.50;;;;;;5083880;28;20172;-87
2022/04/23 09:38:40;;;;;;;30.30;22.83;;;16.60;56.60;;;;;;5084365;28;20176;-87
2022/04/23 09:41:16;;;;;;;26.05;23.20;;;16.40;56.60;;;;;;5064279;28;20209;-87
2022/04/23 09:43:43;;;;;;;27.70;21.17;;;16.40;56.70;;;;;;5083464;28;20301;-87
2022/04/23 09:46:10;;;;;;;27.77;21.58;;;16.40;56.80;;;;;;5082026;28;20581;-87
2022/04/23 09:48:38;;;;;;;25.58;22.30;;;16.50;56.50;;;;;;5091167;28;20250;-87
2022/04/23 09:51:04;;;;;;;24.55;21.60;;;16.60;55.80;;;;;;5100894;28;20197;-88
2022/04/23 09:53:30;;;;;;;25.23;20.80;;;16.70;56.00;;;;;;5087876;28;20262;-86
2022/04/23 09:56:00;;;;;;;24.73;19.97;;;16.80;55.90;;;;;;5105181;22;20215;-84
2022/04/23 09:58:29;;;;;;;26.92;20.55;;;16.90;55.40;;;;;;5117544;28;20176;-83
2022/04/23 10:00:56;;;;;;;26.73;20.33;;;17.00;55.00;;;;;;5116819;28;20183;-84
2022/04/23 10:03:33;;;;;;;25.27;19.65;;;17.00;54.80;;;;;;5095437;28;20176;-86
2022/04/23 10:06:00;;;;;;;27.73;20.40;;;17.10;54.50;;;;;;5094736;28;20195;-86
2022/04/23 10:08:31;;;;;;;35.90;21.30;;;17.10;54.70;;;;;;5094979;28;20252;-87
2022/04/23 10:11:12;;;;;;;25.75;20.05;;;17.20;54.50;;;;;;5093578;28;20230;-87
2022/04/23 10:13:44;;;;;;;24.25;20.35;;;17.10;54.70;;;;;;5094954;28;20168;-87
2022/04/23 10:16:10;;;;;;;20.80;18.60;;;17.20;54.80;;;;;;5078803;28;20200;-87
2022/04/23 10:18:40;;;;;;;26.63;19.40;;;17.40;54.20;;;;;;5094484;28;20202;-87
2022/04/23 10:21:10;;;;;;;24.63;18.95;;;17.40;53.80;;;;;;5095156;28;20207;-86
2022/04/23 10:23:48;;;;;;;23.08;18.10;;;17.40;53.50;;;;;;5093529;28;20231;-85
2022/04/23 10:26:34;;;;;;;26.45;20.00;;;17.40;53.50;;;;;;5093919;28;20192;-85
2022/04/23 10:29:06;;;;;;;25.17;18.77;;;17.50;53.30;;;;;;5095126;28;20203;-85
2022/04/23 10:31:32;;;;;;;24.13;18.60;;;17.40;53.50;;;;;;5093846;28;20164;-86
2022/04/23 10:33:57;;;;;;;23.83;19.60;;;17.50;54.20;;;;;;5093072;28;20180;-86
2022/04/23 10:36:23;;;;;;;20.43;17.80;;;17.60;53.20;;;;;;5094819;28;20445;-85
2022/04/23 10:39:10;;;;;;;23.40;18.15;;;17.40;53.60;;;;;;5076860;28;20183;-86
2022/04/23 10:41:37;;;;;;;22.55;18.83;;;17.50;53.60;;;;;;5100907;28;20179;-89
2022/04/23 10:44:04;;;;;;;22.67;16.95;;;17.70;53.30;;;;;;5103291;28;20191;-85
2022/04/23 10:46:42;;;;;;;23.08;17.90;;;17.70;53.30;;;;;;5093546;28;20530;-86
2022/04/23 10:49:25;;;;;;;29.10;18.27;;;17.70;53.00;;;;;;5080065;28;20179;-86
2022/04/23 10:51:55;;;;;;;21.55;19.35;;;17.80;53.00;;;;;;5078529;28;20524;-86
2022/04/23 10:54:41;;;;;;;21.55;17.80;;;17.90;52.30;;;;;;5065081;28;20234;-87
2022/04/23 10:57:10;;;;;;;20.25;16.63;;;17.90;52.40;;;;;;5098205;28;20211;-87
2022/04/23 10:59:40;;;;;;;21.60;17.27;;;17.90;52.30;;;;;;5096220;28;20183;-86
2022/04/23 11:02:32;;;;;;;20.98;16.40;;;17.90;52.20;;;;;;5092116;28;20580;-86
2022/04/23 11:13:38;;;;;;;20.13;17.17;;;18.10;52.20;;;;;;5094273;28;20175;-86
2022/04/23 11:16:10;;;;;;;19.90;15.90;;;18.20;52.00;;;;;;5093904;28;20200;-85
2022/04/23 11:18:37;;;;;;;23.83;16.90;;;18.50;51.80;;;;;;5094609;28;20237;-86
2022/04/23 11:21:31;;;;;;;23.08;17.08;;;18.60;51.30;;;;;;5091081;28;20168;-85
2022/04/23 11:24:00;;;;;;;22.60;16.70;;;18.60;51.10;;;;;;5048521;28;20208;-85
2022/04/23 11:26:41;;;;;;;19.35;17.15;;;18.70;50.70;;;;;;5075603;28;20216;-85
2022/04/23 11:29:07;;;;;;;21.83;17.15;;;18.70;50.80;;;;;;5058363;28;20180;-85
2022/04/23 11:31:33;;;;;;;27.13;17.70;;;18.80;50.60;;;;;;5077781;28;20526;-85
2022/04/23 11:34:00;;;;;;;17.20;15.40;;;18.80;50.00;;;;;;5075550;28;20180;-86
2022/04/23 11:36:28;;;;;;;19.52;16.35;;;18.90;49.70;;;;;;5065772;28;20188;-86
2022/04/23 11:38:59;;;;;;;18.65;15.02;;;18.90;49.60;;;;;;5092709;28;20176;-85
2022/04/23 11:41:51;;;;;;;19.40;15.27;;;18.90;49.70;;;;;;5077969;28;20173;-85
2022/04/23 11:44:45;;;;;;;17.50;15.70;;;19.10;49.50;;;;;;5077545;28;20687;-86
2022/04/23 11:47:08;;;;;;;16.90;13.70;;;19.00;49.10;;;;;;5081204;28;20196;-85
2022/04/23 11:49:34;;;;;;;20.73;14.75;;;19.00;48.90;;;;;;5105124;28;20203;-86
2022/04/23 11:52:10;;;;;;;17.67;14.15;;;19.00;48.90;;;;;;5113219;28;20194;-85
2022/04/23 11:54:46;;;;;;;18.70;13.80;;;19.10;48.90;;;;;;5098443;28;20213;-86
2022/04/23 11:57:18;;;;;;;20.15;13.63;;;19.20;48.60;;;;;;5100146;28;20214;-86
2022/04/23 11:59:50;;;;;;;21.75;15.02;;;19.20;48.60;;;;;;5107417;28;20186;-85
2022/04/23 12:02:24;;;;;;;17.73;15.05;;;19.20;48.90;;;;;;5089602;28;20207;-85
2022/04/23 12:04:54;;;;;;;22.17;17.38;;;19.20;49.40;;;;;;5055780;28;20291;-85
2022/04/23 12:07:23;;;;;;;23.25;17.30;;;19.30;49.30;;;;;;5059340;28;20566;-86
2022/04/23 12:09:52;;;;;;;18.80;16.58;;;19.30;49.00;;;;;;5059605;28;20180;-85
2022/04/23 12:12:25;;;;;;;20.15;15.50;;;19.20;49.10;;;;;;5074284;28;20252;-85
2022/04/23 12:15:00;;;;;;;18.88;15.45;;;19.30;49.10;;;;;;5058258;28;20180;-85
2022/04/23 12:17:26;;;;;;;19.23;15.98;;;19.40;48.80;;;;;;5058050;28;20195;-85
2022/04/23 12:19:54;;;;;;;24.80;16.50;;;19.40;48.80;;;;;;5076744;28;20606;-85
2022/04/23 12:22:28;;;;;;;18.63;16.63;;;19.40;49.10;;;;;;5058956;28;20188;-85
2022/04/23 12:25:09;;;;;;;21.33;17.50;;;19.30;49.00;;;;;;5075417;28;20204;-85
2022/04/23 12:27:56;;;;;;;39.42;18.25;;;19.30;48.80;;;;;;5091195;28;20249;-84
2022/04/23 12:42:00;;;;;;;15.65;13.70;;;19.80;46.70;;;;;;5095121;28;20188;-84
2022/04/23 12:44:35;;;;;;;17.88;15.73;;;19.90;46.10;;;;;;5096321;28;20211;-85
2022/04/23 12:47:06;;;;;;;17.45;14.18;;;19.80;46.20;;;;;;5076622;28;20250;-86
2022/04/23 12:49:55;;;;;;;25.40;17.52;;;19.70;46.80;;;;;;5096662;28;20251;-87
2022/04/23 12:52:31;;;;;;;17.70;15.82;;;19.70;47.00;;;;;;5108043;28;20245;-87
2022/04/23 12:55:30;;;;;;;19.65;15.10;;;19.80;47.00;;;;;;5131293;27;20251;-87
2022/04/23 12:58:02;;;;;;;19.48;17.27;;;19.80;46.60;;;;;;5073305;28;20263;-85
2022/04/23 13:00:31;;;;;;;18.85;15.43;;;19.80;46.50;;;;;;5077468;28;20191;-86
2022/04/23 13:03:02;;;;;;;17.75;15.95;;;19.80;46.70;;;;;;5073845;28;20203;-86
2022/04/23 13:05:32;;;;;;;18.70;14.82;;;19.90;46.60;;;;;;5074215;28;20508;-86
2022/04/23 13:10:42;;;;;;;24.70;16.58;;;19.80;46.00;;;;;;5075837;28;20184;-86
2022/04/23 13:13:08;;;;;;;19.37;14.63;;;19.90;46.00;;;;;;5075638;28;20180;-86